createdAt,value
2017-06-27T00:00:07.654Z,937.28
2017-06-27T00:00:35.562Z,937.27
2017-06-27T00:01:03.778Z,937.3
2017-06-27T00:01:32.023Z,937.32
2017-06-27T00:02:00.154Z,937.31
2017-06-27T00:02:28.196Z,937.33
2017-06-27T00:02:56.315Z,937.32
2017-06-27T00:03:24.415Z,937.36
2017-06-27T00:03:52.534Z,937.35
2017-06-27T00:04:20.744Z,937.33
2017-06-27T00:04:48.785Z,937.33
2017-06-27T00:05:16.912Z,937.32
2017-06-27T00:05:45.120Z,937.33
2017-06-27T00:06:13.199Z,937.35
2017-06-27T00:06:41.520Z,937.35
2017-06-27T00:07:58.336Z,937.38
2017-06-27T00:08:26.345Z,937.37
2017-06-27T00:08:54.482Z,937.36
2017-06-27T00:09:22.528Z,937.36
2017-06-27T00:09:50.724Z,937.4
2017-06-27T00:10:18.946Z,937.43
2017-06-27T00:10:47.119Z,937.43
2017-06-27T00:11:15.108Z,937.35
2017-06-27T00:11:43.354Z,937.45
2017-06-27T00:12:11.535Z,937.46
2017-06-27T00:12:39.663Z,937.47
2017-06-27T00:13:07.821Z,937.47
2017-06-27T00:13:35.908Z,937.45
2017-06-27T00:14:03.949Z,937.47
2017-06-27T00:14:32.134Z,937.47
2017-06-27T00:15:00.226Z,937.46
2017-06-27T00:15:28.241Z,937.52
2017-06-27T00:15:56.329Z,937.47
2017-06-27T00:16:24.520Z,937.46
2017-06-27T00:16:52.825Z,937.48
2017-06-27T00:17:21.058Z,937.49
2017-06-27T00:17:49.251Z,937.46
2017-06-27T00:18:17.393Z,937.48
2017-06-27T00:18:45.565Z,937.47
2017-06-27T00:19:13.649Z,937.49
2017-06-27T00:19:41.693Z,937.52
2017-06-27T00:20:09.819Z,937.51
2017-06-27T00:20:38.027Z,937.53
2017-06-27T00:21:06.049Z,937.56
2017-06-27T00:21:34.270Z,937.53
2017-06-27T00:22:02.443Z,937.53
2017-06-27T00:22:30.369Z,937.55
2017-06-27T00:22:58.577Z,937.56
2017-06-27T00:23:26.575Z,937.58
2017-06-27T00:23:54.722Z,937.6
2017-06-27T00:24:22.785Z,937.59
2017-06-27T00:24:50.846Z,937.59
2017-06-27T00:25:19.103Z,937.6
2017-06-27T00:25:47.225Z,937.59
2017-06-27T00:26:15.445Z,937.61
2017-06-27T00:26:43.547Z,937.59
2017-06-27T00:27:11.778Z,937.6
2017-06-27T00:27:39.780Z,937.58
2017-06-27T00:28:07.892Z,937.6
2017-06-27T00:28:36.079Z,937.55
2017-06-27T00:29:04.270Z,937.55
2017-06-27T00:29:32.279Z,937.57
2017-06-27T00:30:00.272Z,937.57
2017-06-27T00:30:28.358Z,937.58
2017-06-27T00:30:56.411Z,937.58
2017-06-27T00:31:24.522Z,937.59
2017-06-27T00:31:52.650Z,937.58
2017-06-27T00:32:20.762Z,937.58
2017-06-27T00:32:48.862Z,937.6
2017-06-27T00:33:16.798Z,937.6
2017-06-27T00:33:44.832Z,937.63
2017-06-27T00:34:13.098Z,937.62
2017-06-27T00:34:41.171Z,937.63
2017-06-27T00:35:09.271Z,937.63
2017-06-27T00:35:37.458Z,937.63
2017-06-27T00:36:05.545Z,937.65
2017-06-27T00:36:33.757Z,937.65
2017-06-27T00:37:02.126Z,937.63
2017-06-27T00:37:30.210Z,937.62
2017-06-27T00:37:58.400Z,937.64
2017-06-27T00:38:26.513Z,937.62
2017-06-27T00:38:54.645Z,937.62
2017-06-27T00:39:22.781Z,937.66
2017-06-27T00:39:51.035Z,937.67
2017-06-27T00:40:19.255Z,937.65
2017-06-27T00:40:47.455Z,937.66
2017-06-27T00:41:15.660Z,937.64
2017-06-27T00:41:43.861Z,937.66
2017-06-27T00:42:11.774Z,937.67
2017-06-27T00:42:39.956Z,937.67
2017-06-27T00:43:08.105Z,937.66
2017-06-27T00:43:36.220Z,937.66
2017-06-27T00:44:04.331Z,937.67
2017-06-27T00:44:32.436Z,937.67
2017-06-27T00:45:00.522Z,937.67
2017-06-27T00:45:28.742Z,937.67
2017-06-27T00:45:56.847Z,937.66
2017-06-27T00:46:25.041Z,937.67
2017-06-27T00:46:53.299Z,937.68
2017-06-27T00:47:21.401Z,937.67
2017-06-27T00:47:49.534Z,937.65
2017-06-27T00:48:17.589Z,937.65
2017-06-27T00:48:45.599Z,937.65
2017-06-27T00:49:13.705Z,937.65
2017-06-27T00:49:41.685Z,937.67
2017-06-27T00:50:09.751Z,937.64
2017-06-27T00:50:37.868Z,937.65
2017-06-27T00:51:05.982Z,937.67
2017-06-27T00:51:34.136Z,937.66
2017-06-27T00:52:02.388Z,937.69
2017-06-27T00:52:30.765Z,937.67
2017-06-27T00:52:58.865Z,937.67
2017-06-27T00:53:27.087Z,937.68
2017-06-27T00:53:55.214Z,937.67
2017-06-27T00:54:23.376Z,937.67
2017-06-27T00:54:51.419Z,937.68
2017-06-27T00:55:19.426Z,937.66
2017-06-27T00:55:47.373Z,937.68
2017-06-27T00:56:15.533Z,937.67
2017-06-27T00:56:43.676Z,937.64
2017-06-27T00:57:11.625Z,937.68
2017-06-27T00:57:39.890Z,937.71
2017-06-27T00:58:08.101Z,937.68
2017-06-27T00:58:36.240Z,937.69
2017-06-27T00:59:04.380Z,937.67
2017-06-27T00:59:32.349Z,937.68
2017-06-27T01:00:00.543Z,937.71
2017-06-27T01:00:28.642Z,937.71
2017-06-27T01:00:56.895Z,937.72
2017-06-27T01:01:24.991Z,937.75
2017-06-27T01:01:53.273Z,937.73
2017-06-27T01:02:21.445Z,937.73
2017-06-27T01:02:49.602Z,937.74
2017-06-27T01:03:17.815Z,937.72
2017-06-27T01:03:46.051Z,937.77
2017-06-27T01:04:14.157Z,937.77
2017-06-27T01:04:42.268Z,937.72
2017-06-27T01:05:10.341Z,937.73
2017-06-27T01:05:38.352Z,937.73
2017-06-27T01:06:06.507Z,937.75
2017-06-27T01:06:34.527Z,937.74
2017-06-27T01:07:02.860Z,937.75
2017-06-27T01:07:31.008Z,937.73
2017-06-27T01:07:59.076Z,937.73
2017-06-27T01:08:27.248Z,937.73
2017-06-27T01:08:55.253Z,937.74
2017-06-27T01:09:23.340Z,937.74
2017-06-27T01:09:51.488Z,937.72
2017-06-27T01:10:19.534Z,937.72
2017-06-27T01:10:47.378Z,937.75
2017-06-27T01:11:15.381Z,937.77
2017-06-27T01:11:43.588Z,937.74
2017-06-27T01:12:11.832Z,937.76
2017-06-27T01:12:40.007Z,937.75
2017-06-27T01:13:08.173Z,937.74
2017-06-27T01:13:36.182Z,937.73
2017-06-27T01:14:04.320Z,937.74
2017-06-27T01:14:32.393Z,937.73
2017-06-27T01:15:00.505Z,937.71
2017-06-27T01:15:28.555Z,937.7
2017-06-27T01:15:56.684Z,937.71
2017-06-27T01:16:24.698Z,937.72
2017-06-27T01:16:52.829Z,937.73
2017-06-27T01:17:21.067Z,937.68
2017-06-27T01:17:49.153Z,937.69
2017-06-27T01:18:17.356Z,937.67
2017-06-27T01:18:45.625Z,937.69
2017-06-27T01:19:13.808Z,937.67
2017-06-27T01:19:41.926Z,937.64
2017-06-27T01:20:10.309Z,937.64
2017-06-27T01:20:38.443Z,937.65
2017-06-27T01:21:06.773Z,937.64
2017-06-27T01:21:35.001Z,937.62
2017-06-27T01:22:03.223Z,937.61
2017-06-27T01:22:31.446Z,937.63
2017-06-27T01:22:59.355Z,937.63
2017-06-27T01:23:27.377Z,937.61
2017-06-27T01:23:55.607Z,937.6
2017-06-27T01:24:23.856Z,937.61
2017-06-27T01:24:51.798Z,937.58
2017-06-27T01:25:19.703Z,937.6
2017-06-27T01:25:47.856Z,937.6
2017-06-27T01:26:16.069Z,937.58
2017-06-27T01:26:44.299Z,937.56
2017-06-27T01:27:12.534Z,937.56
2017-06-27T01:27:40.885Z,937.58
2017-06-27T01:28:08.995Z,937.55
2017-06-27T01:28:37.039Z,937.54
2017-06-27T01:29:05.196Z,937.52
2017-06-27T01:29:33.436Z,937.5
2017-06-27T01:30:01.687Z,937.5
2017-06-27T01:30:29.790Z,937.49
2017-06-27T01:30:57.815Z,937.5
2017-06-27T01:31:25.927Z,937.51
2017-06-27T01:31:53.925Z,937.49
2017-06-27T01:32:22.265Z,937.5
2017-06-27T01:32:50.259Z,937.49
2017-06-27T01:33:18.492Z,937.46
2017-06-27T01:33:46.731Z,937.44
2017-06-27T01:34:14.930Z,937.44
2017-06-27T01:34:43.073Z,937.44
2017-06-27T01:35:11.208Z,937.44
2017-06-27T01:35:39.356Z,937.43
2017-06-27T01:36:07.450Z,937.41
2017-06-27T01:36:35.686Z,937.42
2017-06-27T01:37:03.706Z,937.42
2017-06-27T01:37:31.727Z,937.41
2017-06-27T01:37:59.801Z,937.37
2017-06-27T01:38:27.973Z,937.41
2017-06-27T01:38:56.146Z,937.41
2017-06-27T01:39:24.349Z,937.38
2017-06-27T01:39:52.577Z,937.4
2017-06-27T01:40:20.613Z,937.4
2017-06-27T01:40:48.732Z,937.39
2017-06-27T01:41:16.852Z,937.4
2017-06-27T01:41:44.962Z,937.41
2017-06-27T01:42:13.006Z,937.41
2017-06-27T01:42:41.110Z,937.38
2017-06-27T01:43:09.335Z,937.39
2017-06-27T01:43:37.508Z,937.42
2017-06-27T01:44:05.595Z,937.41
2017-06-27T01:44:33.742Z,937.4
2017-06-27T01:45:01.759Z,937.39
2017-06-27T01:45:29.839Z,937.42
2017-06-27T01:45:57.866Z,937.4
2017-06-27T01:46:26.073Z,937.39
2017-06-27T01:46:54.344Z,937.38
2017-06-27T01:47:22.451Z,937.39
2017-06-27T01:47:50.474Z,937.37
2017-06-27T01:48:18.432Z,937.34
2017-06-27T01:48:46.611Z,937.37
2017-06-27T01:49:14.671Z,937.35
2017-06-27T01:49:42.904Z,937.35
2017-06-27T01:50:11.033Z,937.37
2017-06-27T01:50:39.046Z,937.35
2017-06-27T01:51:07.176Z,937.38
2017-06-27T01:51:35.264Z,937.37
2017-06-27T01:52:03.197Z,937.38
2017-06-27T01:52:31.296Z,937.36
2017-06-27T01:52:59.305Z,937.34
2017-06-27T01:53:27.349Z,937.39
2017-06-27T01:53:55.455Z,937.39
2017-06-27T01:54:23.566Z,937.36
2017-06-27T01:54:51.790Z,937.36
2017-06-27T01:55:19.841Z,937.36
2017-06-27T01:55:47.983Z,937.38
2017-06-27T01:56:15.973Z,937.33
2017-06-27T01:56:44.089Z,937.36
2017-06-27T01:57:12.164Z,937.34
2017-06-27T01:57:40.295Z,937.3
2017-06-27T01:58:08.393Z,937.31
2017-06-27T01:58:36.340Z,937.33
2017-06-27T01:59:04.428Z,937.29
2017-06-27T01:59:32.447Z,937.32
2017-06-27T02:00:00.518Z,937.33
2017-06-27T02:00:28.621Z,937.3
2017-06-27T02:00:56.746Z,937.31
2017-06-27T02:01:24.890Z,937.3
2017-06-27T02:01:52.975Z,937.3
2017-06-27T02:02:21.226Z,937.3
2017-06-27T02:02:49.561Z,937.27
2017-06-27T02:03:17.492Z,937.31
2017-06-27T02:03:45.662Z,937.29
2017-06-27T02:04:13.880Z,937.3
2017-06-27T02:04:41.931Z,937.3
2017-06-27T02:05:10.003Z,937.29
2017-06-27T02:05:38.115Z,937.3
2017-06-27T02:06:06.078Z,937.28
2017-06-27T02:06:34.150Z,937.28
2017-06-27T02:07:02.276Z,937.3
2017-06-27T02:07:30.418Z,937.28
2017-06-27T02:07:58.664Z,937.29
2017-06-27T02:08:26.706Z,937.3
2017-06-27T02:08:54.913Z,937.29
2017-06-27T02:09:23.117Z,937.28
2017-06-27T02:09:51.297Z,937.27
2017-06-27T02:10:19.416Z,937.28
2017-06-27T02:10:47.605Z,937.25
2017-06-27T02:11:15.615Z,937.26
2017-06-27T02:11:43.743Z,937.27
2017-06-27T02:12:11.919Z,937.24
2017-06-27T02:12:39.984Z,937.24
2017-06-27T02:13:08.192Z,937.28
2017-06-27T02:13:36.340Z,937.26
2017-06-27T02:14:04.367Z,937.27
2017-06-27T02:14:32.400Z,937.28
2017-06-27T02:15:00.537Z,937.3
2017-06-27T02:15:28.743Z,937.28
2017-06-27T02:15:56.783Z,937.32
2017-06-27T02:16:25.000Z,937.31
2017-06-27T02:16:53.258Z,937.31
2017-06-27T02:17:21.860Z,937.36
2017-06-27T02:17:50.158Z,937.34
2017-06-27T02:18:18.414Z,937.32
2017-06-27T02:18:46.570Z,937.3
2017-06-27T02:19:14.800Z,937.3
2017-06-27T02:19:43.047Z,937.31
2017-06-27T02:20:11.303Z,937.34
2017-06-27T02:20:39.515Z,937.28
2017-06-27T02:21:07.705Z,937.3
2017-06-27T02:21:35.909Z,937.28
2017-06-27T02:22:04.016Z,937.25
2017-06-27T02:22:32.187Z,937.28
2017-06-27T02:23:00.291Z,937.27
2017-06-27T02:23:28.505Z,937.26
2017-06-27T02:23:56.718Z,937.25
2017-06-27T02:24:24.845Z,937.25
2017-06-27T02:24:53.001Z,937.26
2017-06-27T02:25:21.055Z,937.25
2017-06-27T02:25:49.245Z,937.25
2017-06-27T02:26:17.145Z,937.25
2017-06-27T02:26:45.259Z,937.26
2017-06-27T02:27:13.462Z,937.25
2017-06-27T02:27:41.666Z,937.29
2017-06-27T02:28:09.974Z,937.28
2017-06-27T02:28:38.113Z,937.27
2017-06-27T02:29:06.332Z,937.29
2017-06-27T02:29:34.416Z,937.28
2017-06-27T02:30:02.306Z,937.3
2017-06-27T02:30:30.552Z,937.3
2017-06-27T02:30:58.744Z,937.3
2017-06-27T02:31:26.861Z,937.26
2017-06-27T02:31:54.968Z,937.29
2017-06-27T02:32:22.980Z,937.28
2017-06-27T02:32:50.894Z,937.27
2017-06-27T02:33:19.246Z,937.25
2017-06-27T02:33:47.435Z,937.27
2017-06-27T02:34:15.562Z,937.27
2017-06-27T02:34:43.686Z,937.31
2017-06-27T02:35:11.932Z,937.32
2017-06-27T02:35:39.997Z,937.31
2017-06-27T02:36:07.938Z,937.29
2017-06-27T02:36:36.103Z,937.31
2017-06-27T02:37:04.137Z,937.33
2017-06-27T02:37:32.232Z,937.29
2017-06-27T02:38:00.381Z,937.33
2017-06-27T02:38:28.544Z,937.3
2017-06-27T02:38:56.383Z,937.31
2017-06-27T02:39:24.528Z,937.33
2017-06-27T02:39:52.762Z,937.35
2017-06-27T02:40:20.967Z,937.29
2017-06-27T02:40:49.181Z,937.33
2017-06-27T02:41:17.298Z,937.31
2017-06-27T02:41:45.348Z,937.32
2017-06-27T02:42:13.781Z,937.32
2017-06-27T02:42:41.858Z,937.32
2017-06-27T02:43:10.085Z,937.29
2017-06-27T02:43:38.196Z,937.31
2017-06-27T02:44:06.435Z,937.29
2017-06-27T02:44:34.408Z,937.29
2017-06-27T02:45:02.477Z,937.25
2017-06-27T02:45:30.653Z,937.26
2017-06-27T02:45:58.828Z,937.3
2017-06-27T02:46:27.025Z,937.26
2017-06-27T02:46:55.133Z,937.28
2017-06-27T02:47:23.299Z,937.23
2017-06-27T02:47:51.398Z,937.29
2017-06-27T02:48:19.618Z,937.24
2017-06-27T02:48:47.842Z,937.24
2017-06-27T02:49:15.942Z,937.23
2017-06-27T02:49:44.058Z,937.21
2017-06-27T02:50:12.075Z,937.25
2017-06-27T02:50:40.222Z,937.22
2017-06-27T02:51:08.451Z,937.23
2017-06-27T02:51:36.439Z,937.23
2017-06-27T02:52:04.590Z,937.22
2017-06-27T02:52:32.824Z,937.21
2017-06-27T02:53:00.687Z,937.21
2017-06-27T02:53:28.890Z,937.22
2017-06-27T02:53:56.933Z,937.23
2017-06-27T02:54:25.156Z,937.2
2017-06-27T02:54:53.264Z,937.18
2017-06-27T02:55:21.385Z,937.15
2017-06-27T02:55:49.550Z,937.17
2017-06-27T02:56:17.769Z,937.18
2017-06-27T02:56:45.910Z,937.16
2017-06-27T02:57:14.000Z,937.18
2017-06-27T02:57:42.239Z,937.18
2017-06-27T02:58:10.443Z,937.2
2017-06-27T02:58:38.823Z,937.16
2017-06-27T02:59:06.782Z,937.15
2017-06-27T02:59:34.807Z,937.16
2017-06-27T03:00:03.030Z,937.17
2017-06-27T03:00:31.268Z,937.17
2017-06-27T03:00:59.406Z,937.16
2017-06-27T03:01:27.517Z,937.18
2017-06-27T03:01:55.693Z,937.14
2017-06-27T03:02:23.909Z,937.2
2017-06-27T03:02:52.130Z,937.14
2017-06-27T03:03:20.223Z,937.12
2017-06-27T03:03:48.470Z,937.18
2017-06-27T03:04:16.627Z,937.16
2017-06-27T03:04:44.839Z,937.19
2017-06-27T03:05:12.983Z,937.19
2017-06-27T03:05:41.111Z,937.19
2017-06-27T03:06:09.225Z,937.21
2017-06-27T03:06:37.227Z,937.21
2017-06-27T03:07:05.424Z,937.21
2017-06-27T03:07:33.488Z,937.22
2017-06-27T03:08:01.703Z,937.2
2017-06-27T03:08:29.934Z,937.21
2017-06-27T03:08:58.027Z,937.26
2017-06-27T03:09:26.000Z,937.24
2017-06-27T03:09:54.208Z,937.23
2017-06-27T03:10:22.270Z,937.27
2017-06-27T03:10:50.490Z,937.24
2017-06-27T03:11:18.600Z,937.25
2017-06-27T03:11:46.805Z,937.24
2017-06-27T03:12:14.797Z,937.26
2017-06-27T03:12:43.056Z,937.24
2017-06-27T03:13:11.421Z,937.24
2017-06-27T03:13:39.788Z,937.25
2017-06-27T03:14:07.815Z,937.26
2017-06-27T03:14:36.020Z,937.22
2017-06-27T03:15:04.218Z,937.25
2017-06-27T03:15:32.145Z,937.24
2017-06-27T03:16:00.338Z,937.23
2017-06-27T03:16:28.564Z,937.25
2017-06-27T03:16:56.769Z,937.26
2017-06-27T03:17:24.862Z,937.26
2017-06-27T03:17:53.116Z,937.25
2017-06-27T03:18:21.275Z,937.27
2017-06-27T03:18:49.330Z,937.22
2017-06-27T03:19:17.513Z,937.23
2017-06-27T03:19:45.741Z,937.19
2017-06-27T03:20:13.764Z,937.24
2017-06-27T03:20:41.778Z,937.21
2017-06-27T03:21:09.871Z,937.21
2017-06-27T03:21:38.019Z,937.22
2017-06-27T03:22:06.288Z,937.19
2017-06-27T03:22:34.425Z,937.17
2017-06-27T03:23:02.543Z,937.2
2017-06-27T03:23:30.729Z,937.15
2017-06-27T03:23:58.846Z,937.15
2017-06-27T03:24:26.887Z,937.13
2017-06-27T03:24:54.984Z,937.15
2017-06-27T03:25:23.200Z,937.14
2017-06-27T03:25:51.404Z,937.17
2017-06-27T03:26:19.533Z,937.13
2017-06-27T03:26:47.674Z,937.13
2017-06-27T03:27:15.856Z,937.15
2017-06-27T03:27:43.840Z,937.13
2017-06-27T03:28:12.071Z,937.12
2017-06-27T03:28:40.161Z,937.15
2017-06-27T03:29:08.487Z,937.16
2017-06-27T03:29:36.712Z,937.13
2017-06-27T03:30:04.916Z,937.12
2017-06-27T03:30:33.008Z,937.1
2017-06-27T03:31:01.093Z,937.12
2017-06-27T03:31:29.199Z,937.1
2017-06-27T03:31:57.245Z,937.1
2017-06-27T03:32:25.322Z,937.08
2017-06-27T03:32:53.513Z,937.08
2017-06-27T03:33:21.653Z,937.09
2017-06-27T03:33:49.831Z,937.09
2017-06-27T03:34:18.041Z,937.09
2017-06-27T03:34:46.089Z,937.1
2017-06-27T03:35:14.022Z,937.07
2017-06-27T03:35:42.210Z,937.11
2017-06-27T03:36:10.448Z,937.09
2017-06-27T03:36:38.395Z,937.06
2017-06-27T03:37:06.524Z,937.07
2017-06-27T03:37:34.730Z,937.05
2017-06-27T03:38:02.907Z,937.05
2017-06-27T03:38:31.091Z,937.05
2017-06-27T03:38:59.375Z,937.05
2017-06-27T03:39:27.414Z,937.01
2017-06-27T03:39:55.418Z,937.03
2017-06-27T03:40:23.519Z,937.03
2017-06-27T03:40:51.748Z,937.01
2017-06-27T03:41:19.876Z,937
2017-06-27T03:41:48.090Z,937.03
2017-06-27T03:42:16.230Z,936.98
2017-06-27T03:42:44.367Z,937.02
2017-06-27T03:43:12.584Z,937.01
2017-06-27T03:43:40.610Z,937.02
2017-06-27T03:44:08.800Z,937
2017-06-27T03:44:37.009Z,937.03
2017-06-27T03:45:05.235Z,937.04
2017-06-27T03:45:33.266Z,937.02
2017-06-27T03:46:01.256Z,937.02
2017-06-27T03:46:29.465Z,936.99
2017-06-27T03:46:57.677Z,936.99
2017-06-27T03:47:25.846Z,937.01
2017-06-27T03:47:53.942Z,936.98
2017-06-27T03:48:22.069Z,936.99
2017-06-27T03:48:50.163Z,936.96
2017-06-27T03:49:18.295Z,936.98
2017-06-27T03:49:46.418Z,937
2017-06-27T03:50:14.513Z,936.97
2017-06-27T03:50:42.699Z,936.94
2017-06-27T03:51:10.818Z,936.96
2017-06-27T03:51:38.924Z,936.93
2017-06-27T03:52:07.149Z,936.96
2017-06-27T03:52:35.340Z,937
2017-06-27T03:53:03.463Z,936.92
2017-06-27T03:53:31.590Z,937
2017-06-27T03:53:59.748Z,936.92
2017-06-27T03:54:28.067Z,936.95
2017-06-27T03:54:56.225Z,936.95
2017-06-27T03:55:24.379Z,936.94
2017-06-27T03:55:52.572Z,936.92
2017-06-27T03:56:20.733Z,936.92
2017-06-27T03:56:48.714Z,936.9
2017-06-27T03:57:16.837Z,936.88
2017-06-27T03:57:45.065Z,936.92
2017-06-27T03:58:13.161Z,936.93
2017-06-27T03:58:41.379Z,936.89
2017-06-27T03:59:09.693Z,936.86
2017-06-27T03:59:37.827Z,936.89
2017-06-27T04:00:05.939Z,936.9
2017-06-27T04:00:34.173Z,936.88
2017-06-27T04:01:02.238Z,936.87
2017-06-27T04:01:30.252Z,936.86
2017-06-27T04:01:58.372Z,936.87
2017-06-27T04:02:26.477Z,936.85
2017-06-27T04:02:54.465Z,936.86
2017-06-27T04:03:22.616Z,936.87
2017-06-27T04:03:50.844Z,936.86
2017-06-27T04:04:19.186Z,936.86
2017-06-27T04:04:47.211Z,936.84
2017-06-27T04:05:15.248Z,936.86
2017-06-27T04:05:43.186Z,936.83
2017-06-27T04:06:11.178Z,936.84
2017-06-27T04:06:39.401Z,936.83
2017-06-27T04:07:07.558Z,936.81
2017-06-27T04:07:35.690Z,936.8
2017-06-27T04:08:03.705Z,936.82
2017-06-27T04:08:31.876Z,936.82
2017-06-27T04:08:59.993Z,936.83
2017-06-27T04:09:28.286Z,936.8
2017-06-27T04:09:56.320Z,936.81
2017-06-27T04:10:24.418Z,936.82
2017-06-27T04:10:52.492Z,936.83
2017-06-27T04:11:20.716Z,936.79
2017-06-27T04:11:48.836Z,936.84
2017-06-27T04:12:17.044Z,936.83
2017-06-27T04:12:45.086Z,936.82
2017-06-27T04:13:13.283Z,936.81
2017-06-27T04:13:41.246Z,936.83
2017-06-27T04:14:09.379Z,936.81
2017-06-27T04:14:37.697Z,936.82
2017-06-27T04:15:06.244Z,936.78
2017-06-27T04:15:34.399Z,936.79
2017-06-27T04:16:02.612Z,936.81
2017-06-27T04:16:30.807Z,936.81
2017-06-27T04:16:58.833Z,936.79
2017-06-27T04:17:27.042Z,936.79
2017-06-27T04:17:55.223Z,936.77
2017-06-27T04:18:23.327Z,936.78
2017-06-27T04:18:51.446Z,936.79
2017-06-27T04:19:19.655Z,936.76
2017-06-27T04:19:47.886Z,936.77
2017-06-27T04:20:15.986Z,936.77
2017-06-27T04:20:44.247Z,936.73
2017-06-27T04:21:12.331Z,936.74
2017-06-27T04:21:40.548Z,936.66
2017-06-27T04:22:08.494Z,936.72
2017-06-27T04:22:36.601Z,936.72
2017-06-27T04:23:04.814Z,936.73
2017-06-27T04:23:33.018Z,936.7
2017-06-27T04:24:01.163Z,936.71
2017-06-27T04:24:29.372Z,936.7
2017-06-27T04:24:57.511Z,936.71
2017-06-27T04:25:25.565Z,936.69
2017-06-27T04:25:53.805Z,936.67
2017-06-27T04:26:21.927Z,936.67
2017-06-27T04:26:49.859Z,936.65
2017-06-27T04:27:17.995Z,936.67
2017-06-27T04:27:46.217Z,936.66
2017-06-27T04:28:14.348Z,936.67
2017-06-27T04:28:42.383Z,936.63
2017-06-27T04:29:10.470Z,936.63
2017-06-27T04:29:38.757Z,936.65
2017-06-27T04:30:06.799Z,936.61
2017-06-27T04:30:34.940Z,936.64
2017-06-27T04:31:03.062Z,936.62
2017-06-27T04:31:31.098Z,936.6
2017-06-27T04:31:59.359Z,936.61
2017-06-27T04:32:27.404Z,936.62
2017-06-27T04:32:55.464Z,936.65
2017-06-27T04:33:23.575Z,936.62
2017-06-27T04:33:51.744Z,936.62
2017-06-27T04:34:19.882Z,936.6
2017-06-27T04:34:48.159Z,936.62
2017-06-27T04:35:16.422Z,936.61
2017-06-27T04:35:44.343Z,936.61
2017-06-27T04:36:12.526Z,936.6
2017-06-27T04:36:40.534Z,936.58
2017-06-27T04:37:08.641Z,936.59
2017-06-27T04:37:36.880Z,936.59
2017-06-27T04:38:04.991Z,936.56
2017-06-27T04:38:33.123Z,936.56
2017-06-27T04:39:01.222Z,936.59
2017-06-27T04:39:29.135Z,936.54
2017-06-27T04:39:57.331Z,936.54
2017-06-27T04:40:25.203Z,936.55
2017-06-27T04:40:53.332Z,936.49
2017-06-27T04:41:21.866Z,936.54
2017-06-27T04:41:49.988Z,936.54
2017-06-27T04:42:18.315Z,936.53
2017-06-27T04:42:46.524Z,936.51
2017-06-27T04:43:14.747Z,936.53
2017-06-27T04:43:42.931Z,936.49
2017-06-27T04:44:11.127Z,936.48
2017-06-27T04:44:39.165Z,936.47
2017-06-27T04:45:07.339Z,936.48
2017-06-27T04:45:35.346Z,936.5
2017-06-27T04:46:03.459Z,936.48
2017-06-27T04:46:31.672Z,936.46
2017-06-27T04:46:59.877Z,936.48
2017-06-27T04:47:28.031Z,936.49
2017-06-27T04:47:56.266Z,936.47
2017-06-27T04:48:24.253Z,936.47
2017-06-27T04:48:52.449Z,936.52
2017-06-27T04:49:20.551Z,936.43
2017-06-27T04:49:48.860Z,936.47
2017-06-27T04:50:16.926Z,936.46
2017-06-27T04:50:44.921Z,936.49
2017-06-27T04:51:13.208Z,936.46
2017-06-27T04:51:41.423Z,936.45
2017-06-27T04:52:09.647Z,936.46
2017-06-27T04:52:37.736Z,936.45
2017-06-27T04:53:05.767Z,936.44
2017-06-27T04:53:33.870Z,936.42
2017-06-27T04:54:02.144Z,936.47
2017-06-27T04:54:30.235Z,936.4
2017-06-27T04:54:58.448Z,936.39
2017-06-27T04:55:26.602Z,936.36
2017-06-27T04:55:54.856Z,936.37
2017-06-27T04:56:22.838Z,936.41
2017-06-27T04:56:50.859Z,936.37
2017-06-27T04:57:18.995Z,936.36
2017-06-27T04:57:47.109Z,936.37
2017-06-27T04:58:15.126Z,936.32
2017-06-27T04:58:43.359Z,936.38
2017-06-27T04:59:11.467Z,936.36
2017-06-27T04:59:39.516Z,936.37
2017-06-27T05:00:07.741Z,936.34
2017-06-27T05:00:35.879Z,936.36
2017-06-27T05:01:03.949Z,936.39
2017-06-27T05:01:32.077Z,936.4
2017-06-27T05:02:00.264Z,936.37
2017-06-27T05:02:28.373Z,936.38
2017-06-27T05:02:56.484Z,936.35
2017-06-27T05:03:24.671Z,936.34
2017-06-27T05:03:52.887Z,936.36
2017-06-27T05:04:20.924Z,936.36
2017-06-27T05:04:48.937Z,936.3
2017-06-27T05:05:17.234Z,936.32
2017-06-27T05:05:45.427Z,936.3
2017-06-27T05:06:13.654Z,936.34
2017-06-27T05:06:41.920Z,936.35
2017-06-27T05:07:10.250Z,936.32
2017-06-27T05:07:38.371Z,936.31
2017-06-27T05:08:06.595Z,936.31
2017-06-27T05:08:34.800Z,936.3
2017-06-27T05:09:02.851Z,936.28
2017-06-27T05:09:30.823Z,936.28
2017-06-27T05:09:58.914Z,936.27
2017-06-27T05:10:27.197Z,936.32
2017-06-27T05:10:55.354Z,936.29
2017-06-27T05:11:23.569Z,936.31
2017-06-27T05:11:51.484Z,936.25
2017-06-27T05:12:19.633Z,936.28
2017-06-27T05:12:47.716Z,936.27
2017-06-27T05:13:15.956Z,936.27
2017-06-27T05:13:43.988Z,936.22
2017-06-27T05:14:12.114Z,936.26
2017-06-27T05:14:40.233Z,936.25
2017-06-27T05:15:08.388Z,936.21
2017-06-27T05:15:36.500Z,936.24
2017-06-27T05:16:04.676Z,936.21
2017-06-27T05:16:32.844Z,936.2
2017-06-27T05:17:00.953Z,936.24
2017-06-27T05:17:28.960Z,936.16
2017-06-27T05:17:57.005Z,936.19
2017-06-27T05:18:25.238Z,936.2
2017-06-27T05:18:53.467Z,936.19
2017-06-27T05:19:21.746Z,936.21
2017-06-27T05:19:50.103Z,936.22
2017-06-27T05:20:18.233Z,936.17
2017-06-27T05:20:46.423Z,936.17
2017-06-27T05:21:14.676Z,936.15
2017-06-27T05:21:42.833Z,936.21
2017-06-27T05:22:10.953Z,936.21
2017-06-27T05:22:39.248Z,936.2
2017-06-27T05:23:07.453Z,936.14
2017-06-27T05:23:35.397Z,936.17
2017-06-27T05:24:03.366Z,936.16
2017-06-27T05:24:31.344Z,936.16
2017-06-27T05:24:59.601Z,936.13
2017-06-27T05:25:27.948Z,936.13
2017-06-27T05:25:56.197Z,936.11
2017-06-27T05:26:24.247Z,936.12
2017-06-27T05:26:52.346Z,936.12
2017-06-27T05:27:20.601Z,936.1
2017-06-27T05:27:48.585Z,936.1
2017-06-27T05:28:16.703Z,936.1
2017-06-27T05:28:44.858Z,936.04
2017-06-27T05:29:13.094Z,936.09
2017-06-27T05:29:41.295Z,936.07
2017-06-27T05:30:09.221Z,936.09
2017-06-27T05:30:37.429Z,936.05
2017-06-27T05:31:05.558Z,936.04
2017-06-27T05:31:33.816Z,936.02
2017-06-27T05:32:01.985Z,936.03
2017-06-27T05:32:30.007Z,936.01
2017-06-27T05:32:58.189Z,936.01
2017-06-27T05:33:26.408Z,936.03
2017-06-27T05:33:54.651Z,936.03
2017-06-27T05:34:22.677Z,936
2017-06-27T05:34:50.833Z,935.96
2017-06-27T05:35:18.968Z,936.01
2017-06-27T05:35:47.006Z,936.03
2017-06-27T05:36:14.944Z,936
2017-06-27T05:36:43.151Z,936.02
2017-06-27T05:37:11.235Z,936.02
2017-06-27T05:37:39.472Z,935.97
2017-06-27T05:38:07.637Z,935.98
2017-06-27T05:38:35.766Z,936.01
2017-06-27T05:39:03.859Z,936.02
2017-06-27T05:39:31.986Z,935.99
2017-06-27T05:40:00.075Z,935.97
2017-06-27T05:40:28.430Z,935.96
2017-06-27T05:40:56.670Z,935.94
2017-06-27T05:41:24.876Z,935.94
2017-06-27T05:41:53.068Z,935.96
2017-06-27T05:42:21.166Z,935.94
2017-06-27T05:42:49.290Z,935.92
2017-06-27T05:43:17.325Z,935.92
2017-06-27T05:43:45.545Z,935.91
2017-06-27T05:44:13.794Z,935.9
2017-06-27T05:44:42.021Z,935.89
2017-06-27T05:45:10.193Z,935.91
2017-06-27T05:45:38.533Z,935.9
2017-06-27T05:46:06.530Z,935.92
2017-06-27T05:46:34.767Z,935.91
2017-06-27T05:47:02.914Z,935.92
2017-06-27T05:47:30.958Z,935.92
2017-06-27T05:47:59.091Z,935.95
2017-06-27T05:48:27.219Z,935.89
2017-06-27T05:48:55.374Z,935.91
2017-06-27T05:49:23.574Z,935.96
2017-06-27T05:49:51.696Z,935.95
2017-06-27T05:50:19.899Z,935.99
2017-06-27T05:50:48.206Z,935.96
2017-06-27T05:51:16.243Z,935.94
2017-06-27T05:51:44.094Z,935.93
2017-06-27T05:52:12.215Z,935.98
2017-06-27T05:52:40.206Z,935.97
2017-06-27T05:53:08.259Z,935.94